Pagrindinis puslapis
METAR-TAF:

METAR-TAF

Oro uostai :

Derbis, Australija

platuma: 17-22-12S, ilguma: 123-39-38E, Aukštis: 7 m

Dabartinis oras

Ataskaita buvo paskelbta 40 minutes, ne 19:00 UTC
Vėjas 7 kt iš Pietų
Temperatūra 29°C
Drėgmė 74%
Slėgis 1006 hPa
Matomumas 10 km arba daugiau
Su prošvaistėmis ne aukštis 11000 ft

METAR: YDBY 251900Z AUTO 19007KT 9999 // BKN110 29/24 Q1006

Laikas: 03:40 (19:40 UTC)


TAF: trūkstamas

Orai ataskaitas ir orų prognozės (METAR, TAF).

turimą stotys yra geltonos ir raudonos taškus žemėlapyje.

Perkelti pele per norėdami pamatyti stoties vardą.

Tada spustelėkite, norėdami matyti oro stebėjimo ir prognozės.

Norėdami pakeisti žemėlapį: spustelėkite ant žalios mygtukų su juodo kryžiaus žemyn,; žalią mygtuką su brūkšneliu, jei norite nutolinti; arba žalių rodyklių gretimoms žemėlapius.


METAR-TAF: